»·PEaware :: AAL465 KSAN-KPHX

AAL465 :: KSAN-KPHX

FLIGHT INFORMATION

Flight Status: Arrived
Operator:
American Airlines
More flights by this operator :: More flights under this callsign
Pilot: Michael C. (16705)
Aircraft: BOEING 757-200
(B752)
More flights by this aircraft type
Origin: KSAN San Diego Intl-Lindbergh
United States
Destination: KPHX Phoenix Sky Harbor Intl
United States
More flights between these airports :: More routes between these airports
Route: +ZZOOO1 IPL J18 BZA HOGGZ HYDRR1
File this flight plan on PilotEdge
Remarks:
Altitude:
(Current/Filed)
35,000ft
Speed:
(Current/Filed)
450kts
Departed: 18-Sep-17 04:13 PM
Arrived: 18-Sep-17 05:10 PM
Distance/Time
Traveled:
264nm/0:57
Distance/Time
To Go:
Arrived

Flight Plot

Page will automatically refresh every two minutes.


Map Options




Map Legend


Flown Route
Filed Route
Departure Airport
Arrival Airport
Navaid (VOR, NDB)
Fix

Horizontal Profiles

Position Reports

Time Latitude Longitude Heading Altitude Ground
Speed
18-Sep-17 15:15 32.733966 -117.183090 105 25ft 0kts
18-Sep-17 15:16 32.733966 -117.183090 105 25ft 0kts
18-Sep-17 15:17 32.733966 -117.183090 105 25ft 0kts
18-Sep-17 15:18 32.733966 -117.183090 105 25ft 0kts
18-Sep-17 15:19 32.733966 -117.183090 105 25ft 0kts
18-Sep-17 15:20 32.733966 -117.183090 105 25ft 0kts
18-Sep-17 15:21 32.733966 -117.183090 105 25ft 0kts
18-Sep-17 15:22 32.733966 -117.183090 105 25ft 0kts
18-Sep-17 15:23 32.733966 -117.183090 105 25ft 0kts
18-Sep-17 15:24 32.733966 -117.183090 105 25ft 0kts
18-Sep-17 15:25 32.733966 -117.183090 105 25ft 0kts
18-Sep-17 15:26 32.733966 -117.183090 105 25ft 0kts
18-Sep-17 15:27 32.733966 -117.183090 105 25ft 0kts
18-Sep-17 15:28 32.733966 -117.183090 105 25ft 0kts
18-Sep-17 15:29 32.733966 -117.183090 105 25ft 0kts
18-Sep-17 15:30 32.733966 -117.183090 105 25ft 0kts
18-Sep-17 15:31 32.733966 -117.183090 105 25ft 0kts
18-Sep-17 15:32 32.733966 -117.183090 105 25ft 0kts
18-Sep-17 15:33 32.733966 -117.183090 105 25ft 0kts
18-Sep-17 15:34 32.733966 -117.183090 105 25ft 0kts
18-Sep-17 15:35 32.733966 -117.183090 105 25ft 0kts
18-Sep-17 15:36 32.733966 -117.183090 105 25ft 0kts
18-Sep-17 15:37 32.733966 -117.183090 105 25ft 0kts
18-Sep-17 15:38 32.733966 -117.183090 105 25ft 0kts
18-Sep-17 15:39 32.733966 -117.183090 105 25ft 0kts
18-Sep-17 15:40 32.733966 -117.183090 105 25ft 0kts
18-Sep-17 15:41 32.733966 -117.183090 105 25ft 0kts
18-Sep-17 15:42 32.733966 -117.183090 105 25ft 0kts
18-Sep-17 15:43 32.733966 -117.183090 105 25ft 0kts
18-Sep-17 15:44 32.733966 -117.183090 105 25ft 0kts
18-Sep-17 15:45 32.733966 -117.183090 105 25ft 0kts
18-Sep-17 15:46 32.733966 -117.183090 105 25ft 0kts
18-Sep-17 15:47 32.733966 -117.183090 105 25ft 0kts
18-Sep-17 15:48 32.733966 -117.183090 105 25ft 0kts
18-Sep-17 15:49 32.733966 -117.183090 105 25ft 0kts
18-Sep-17 15:50 32.733974 -117.183069 72 25ft 0kts
18-Sep-17 15:51 32.734018 -117.183058 354 26ft 0kts
18-Sep-17 15:52 32.734271 -117.183763 160 25ft 0kts
18-Sep-17 15:53 32.734155 -117.183741 189 25ft 0kts
18-Sep-17 15:54 32.734148 -117.183743 189 25ft 0kts
18-Sep-17 15:55 32.734148 -117.183743 189 25ft 0kts
18-Sep-17 15:56 32.734148 -117.183743 189 25ft 0kts
18-Sep-17 15:57 32.734148 -117.183743 189 25ft 0kts
18-Sep-17 15:58 32.734148 -117.183743 189 25ft 0kts
18-Sep-17 15:59 32.734148 -117.183743 189 25ft 0kts
18-Sep-17 16:00 32.734148 -117.183743 189 25ft 0kts
18-Sep-17 16:01 32.734148 -117.183743 189 25ft 0kts
18-Sep-17 16:02 32.734148 -117.183743 189 25ft 0kts
18-Sep-17 16:03 32.734148 -117.183743 189 25ft 0kts
18-Sep-17 16:04 32.734142 -117.183744 189 25ft 0kts
18-Sep-17 16:05 32.734142 -117.183744 189 25ft 0kts
18-Sep-17 16:06 32.734142 -117.183744 189 25ft 0kts
18-Sep-17 16:07 32.734142 -117.183744 189 25ft 0kts
18-Sep-17 16:08 32.734142 -117.183744 189 25ft 0kts
18-Sep-17 16:09 32.734142 -117.183744 189 25ft 0kts
18-Sep-17 16:10 32.734142 -117.183744 189 25ft 0kts
18-Sep-17 16:11 32.733183 -117.183394 107 25ft 9kts
18-Sep-17 16:12 32.731807 -117.177565 109 32ft 16kts
18-Sep-17 16:13 32.731076 -117.175618 133 35ft 0kts
18-Sep-17 16:14 32.731076 -117.175618 133 35ft 0kts
18-Sep-17 16:15 32.731076 -117.175618 133 35ft 0kts
18-Sep-17 16:16 32.730310 -117.175856 270 31ft 9kts
18-Sep-17 16:17 32.736856 -117.202729 286 656ft 160kts
18-Sep-17 16:18 32.748982 -117.253601 288 2890ft 157kts
18-Sep-17 16:19 32.745976 -117.308128 212 4273ft 219kts
18-Sep-17 16:20 32.692570 -117.280917 145 7299ft 236kts
18-Sep-17 16:21 32.635792 -117.237052 120 10000ft 268kts
18-Sep-17 16:22 32.623735 -117.148474 96 13187ft 280kts
18-Sep-17 16:23 32.615661 -117.054929 95 15935ft 294kts
18-Sep-17 16:24 32.606314 -116.955225 96 18273ft 313kts
18-Sep-17 16:25 32.615316 -116.851969 77 20418ft 324kts
18-Sep-17 16:26 32.633731 -116.743439 83 22011ft 354kts
18-Sep-17 16:27 32.646094 -116.617451 83 22596ft 420kts
18-Sep-17 16:28 32.659838 -116.475703 83 24706ft 439kts
18-Sep-17 16:29 32.673747 -116.330422 83 26754ft 452kts
18-Sep-17 16:30 32.687933 -116.180402 83 28575ft 464kts
18-Sep-17 16:31 32.702306 -116.026370 83 30212ft 476kts
18-Sep-17 16:32 32.716763 -115.870185 83 32131ft 476kts
18-Sep-17 16:33 32.731626 -115.714700 83 34100ft 472kts
18-Sep-17 16:34 32.745031 -115.560872 83 34980ft 468kts
18-Sep-17 16:35 32.752231 -115.406574 88 34997ft 468kts
18-Sep-17 16:36 32.755659 -115.253610 88 34999ft 468kts
18-Sep-17 16:37 32.759069 -115.099286 88 35000ft 468kts
18-Sep-17 16:38 32.762311 -114.944623 88 35000ft 468kts
18-Sep-17 16:39 32.765366 -114.789733 88 33450ft 471kts
18-Sep-17 16:40 32.768245 -114.633908 88 31280ft 476kts
18-Sep-17 16:41 32.770586 -114.479444 88 29037ft 461kts
18-Sep-17 16:42 32.772529 -114.330660 89 26663ft 449kts
18-Sep-17 16:43 32.774281 -114.185279 89 24982ft 430kts
18-Sep-17 16:44 32.778563 -114.043042 82 25000ft 431kts
18-Sep-17 16:45 32.793892 -113.902181 82 24992ft 423kts
18-Sep-17 16:46 32.808409 -113.768686 82 24988ft 404kts
18-Sep-17 16:47 32.848363 -113.644937 48 24974ft 391kts
18-Sep-17 16:48 32.919701 -113.549440 48 23683ft 388kts
18-Sep-17 16:49 32.991307 -113.452862 48 21396ft 389kts
18-Sep-17 16:50 33.061801 -113.357543 48 19442ft 380kts
18-Sep-17 16:51 33.130513 -113.264529 48 17478ft 373kts
18-Sep-17 16:52 33.197331 -113.173988 48 16097ft 350kts
18-Sep-17 16:53 33.259201 -113.090033 48 15168ft 330kts
18-Sep-17 16:54 33.316507 -113.005807 66 14322ft 326kts
18-Sep-17 16:55 33.324027 -112.899135 90 13542ft 322kts
18-Sep-17 16:56 33.316782 -112.793241 96 12751ft 318kts
18-Sep-17 16:57 33.307608 -112.688555 92 11951ft 315kts
18-Sep-17 16:58 33.304147 -112.584554 92 11590ft 313kts
18-Sep-17 16:59 33.308647 -112.482967 84 11234ft 295kts
18-Sep-17 17:00 33.316872 -112.385782 83 10868ft 292kts
18-Sep-17 17:01 33.326744 -112.289735 81 10556ft 291kts
18-Sep-17 17:02 33.335101 -112.193931 85 9878ft 287kts
18-Sep-17 17:03 33.341339 -112.100826 85 9064ft 267kts
18-Sep-17 17:04 33.346792 -112.016045 85 8738ft 257kts
18-Sep-17 17:05 33.352148 -111.931794 85 7452ft 248kts
18-Sep-17 17:06 33.355107 -111.853366 88 6104ft 225kts
18-Sep-17 17:07 33.357245 -111.783774 71 4961ft 204kts
18-Sep-17 17:08 33.404416 -111.769923 349 4060ft 182kts
18-Sep-17 17:09 33.438948 -111.808297 275 4088ft 179kts
18-Sep-17 17:10 33.440378 -111.867859 270 3213ft 168kts
18-Sep-17 17:11 33.440652 -111.917175 270 2353ft 142kts
18-Sep-17 17:12 33.441003 -111.965553 270 1774ft 153kts
18-Sep-17 17:13 33.440727 -112.009137 271 1120ft 68kts
18-Sep-17 17:14 33.440728 -112.013098 257 1120ft 4kts
18-Sep-17 17:15 33.439680 -112.012507 92 1120ft 11kts
18-Sep-17 17:16 33.439010 -112.009037 89 1120ft 16kts
18-Sep-17 17:17 33.439040 -112.003438 94 1120ft 5kts
18-Sep-17 17:18 33.438020 -112.002585 110 1120ft 3kts
18-Sep-17 17:19 33.437998 -112.002511 108 1120ft 0kts
18-Sep-17 17:20 33.437998 -112.002511 108 1120ft 0kts

Navigation Log

Ident Type
1. KSAN Airport
2. JETTI Fix
3. ZZOOO Fix
4. JORRJ Fix
5. GRIDR Fix
6. BLUZE Fix
7. IPL Navaid
8. IPL Navaid
9. HEEDS Fix
10. BZA Navaid
11. HOGGZ Fix
12. JUDTH Fix
13. RKDAM Fix
14. HYDRR Fix
15. GEELA Fix
16. PUNNT Fix
17. TEICH Fix
18. TESLE Fix
19. FALGO Fix
20. CAGOR Fix
21. FOWLE Fix
22. KPHX Airport